createdAt,value
2018-11-27T00:00:06.034Z,1004.48
2018-11-27T00:01:06.330Z,1004.54
2018-11-27T00:02:06.446Z,1004.58
2018-11-27T00:03:06.516Z,1004.53
2018-11-27T00:04:07.195Z,1004.55
2018-11-27T00:05:07.136Z,1004.57
2018-11-27T00:06:07.473Z,1004.65
2018-11-27T00:07:07.472Z,1004.59
2018-11-27T00:08:07.588Z,1004.56
2018-11-27T00:09:07.909Z,1004.63
2018-11-27T00:10:08.045Z,1004.54
2018-11-27T00:11:08.246Z,1004.59
2018-11-27T00:12:08.445Z,1004.65
2018-11-27T00:13:08.651Z,1004.65
2018-11-27T00:14:08.985Z,1004.66
2018-11-27T00:15:09.143Z,1004.65
2018-11-27T00:16:08.956Z,1004.59
2018-11-27T00:17:09.353Z,1004.63
2018-11-27T00:18:09.758Z,1004.63
2018-11-27T00:19:10.194Z,1004.61
2018-11-27T00:20:10.629Z,1004.70
2018-11-27T00:21:10.964Z,1004.69
2018-11-27T00:22:11.372Z,1004.73
2018-11-27T00:23:11.737Z,1004.62
2018-11-27T00:24:12.080Z,1004.67
2018-11-27T00:25:12.494Z,1004.64
2018-11-27T00:26:12.673Z,1004.72
2018-11-27T00:27:13.010Z,1004.66
2018-11-27T00:29:13.495Z,1004.66
2018-11-27T00:30:13.840Z,1004.73
2018-11-27T00:31:14.060Z,1004.68
2018-11-27T00:32:14.393Z,1004.76
2018-11-27T00:33:14.691Z,1004.79
2018-11-27T00:34:15.074Z,1004.75
2018-11-27T00:35:15.888Z,1004.77
2018-11-27T00:36:15.890Z,1004.81
2018-11-27T00:37:15.706Z,1004.82
2018-11-27T00:38:16.139Z,1004.64
2018-11-27T00:39:16.659Z,1004.72
2018-11-27T00:40:17.039Z,1004.82
2018-11-27T00:41:16.545Z,1004.79
2018-11-27T00:42:16.972Z,1004.75
2018-11-27T00:43:17.389Z,1004.77
2018-11-27T00:44:17.793Z,1004.82
2018-11-27T00:45:18.919Z,1004.84
2018-11-27T00:46:19.332Z,1004.81
2018-11-27T00:48:19.852Z,1004.87
2018-11-27T00:49:20.269Z,1004.82
2018-11-27T00:50:20.592Z,1004.88
2018-11-27T00:51:20.701Z,1004.84
2018-11-27T00:52:21.199Z,1004.89
2018-11-27T00:53:21.424Z,1004.86
2018-11-27T00:54:21.635Z,1004.90
2018-11-27T00:55:21.652Z,1004.93
2018-11-27T00:56:21.647Z,1004.96
2018-11-27T00:57:22.126Z,1004.93
2018-11-27T00:58:22.429Z,1004.91
2018-11-27T00:59:22.572Z,1004.92
2018-11-27T01:00:22.633Z,1004.97
2018-11-27T01:01:23.123Z,1004.95
2018-11-27T01:02:23.323Z,1004.92
2018-11-27T01:03:23.522Z,1004.96
2018-11-27T01:04:23.700Z,1005.02
2018-11-27T01:05:24.073Z,1005.00
2018-11-27T01:06:24.230Z,1005.00
2018-11-27T01:07:24.143Z,1005.00
2018-11-27T01:08:24.880Z,1004.98
2018-11-27T01:09:24.727Z,1004.92
2018-11-27T01:10:25.319Z,1005.03
2018-11-27T01:11:25.340Z,1005.04
2018-11-27T01:12:25.668Z,1005.06
2018-11-27T01:13:25.978Z,1005.04
2018-11-27T01:14:26.289Z,1005.04
2018-11-27T01:15:26.612Z,1005.05
2018-11-27T01:16:26.916Z,1005.13
2018-11-27T01:17:27.233Z,1005.20
2018-11-27T01:18:27.651Z,1005.18
2018-11-27T01:19:27.701Z,1005.20
2018-11-27T01:20:27.985Z,1005.25
2018-11-27T01:21:28.335Z,1005.22
2018-11-27T01:22:28.746Z,1005.22
2018-11-27T01:23:29.180Z,1005.21
2018-11-27T01:24:29.531Z,1005.19
2018-11-27T01:25:29.967Z,1005.26
2018-11-27T01:26:30.384Z,1005.17
2018-11-27T01:27:30.800Z,1005.20
2018-11-27T01:28:31.396Z,1005.20
2018-11-27T01:29:31.345Z,1005.21
2018-11-27T01:30:31.708Z,1005.14
2018-11-27T01:31:32.035Z,1005.24
2018-11-27T01:32:32.465Z,1005.14
2018-11-27T01:33:32.758Z,1005.21
2018-11-27T01:34:33.770Z,1005.20
2018-11-27T01:35:33.476Z,1005.27
2018-11-27T01:36:34.090Z,1005.22
2018-11-27T01:37:34.305Z,1005.27
2018-11-27T01:38:34.625Z,1005.23
2018-11-27T01:39:34.827Z,1005.23
2018-11-27T01:40:35.049Z,1005.20
2018-11-27T01:41:35.556Z,1005.30
2018-11-27T01:42:35.154Z,1005.27
2018-11-27T01:43:35.778Z,1005.29
2018-11-27T01:44:35.575Z,1005.31
2018-11-27T01:45:36.006Z,1005.30
2018-11-27T01:46:36.511Z,1005.26
2018-11-27T01:47:36.829Z,1005.30
2018-11-27T01:48:36.839Z,1005.29
2018-11-27T01:49:36.928Z,1005.27
2018-11-27T01:50:37.137Z,1005.28
2018-11-27T01:51:37.157Z,1005.24
2018-11-27T01:52:37.154Z,1005.29
2018-11-27T01:53:37.162Z,1005.27
2018-11-27T01:54:37.269Z,1005.26
2018-11-27T01:55:37.390Z,1005.26
2018-11-27T01:56:37.154Z,1005.27
2018-11-27T01:57:37.388Z,1005.34
2018-11-27T01:58:37.595Z,1005.28
2018-11-27T01:59:37.687Z,1005.29
2018-11-27T02:00:37.810Z,1005.28
2018-11-27T02:01:38.057Z,1005.23
2018-11-27T02:02:38.257Z,1005.31
2018-11-27T02:03:38.545Z,1005.24
2018-11-27T02:04:38.778Z,1005.29
2018-11-27T02:05:38.877Z,1005.25
2018-11-27T02:06:39.045Z,1005.29
2018-11-27T02:07:39.039Z,1005.32
2018-11-27T02:08:39.365Z,1005.30
2018-11-27T02:09:39.789Z,1005.32
2018-11-27T02:10:40.181Z,1005.29
2018-11-27T02:11:40.488Z,1005.29
2018-11-27T02:12:40.820Z,1005.24
2018-11-27T02:13:41.294Z,1005.30
2018-11-27T02:14:41.646Z,1005.26
2018-11-27T02:15:42.234Z,1005.30
2018-11-27T02:16:42.076Z,1005.30
2018-11-27T02:17:42.485Z,1005.20
2018-11-27T02:18:42.904Z,1005.29
2018-11-27T02:19:43.212Z,1005.35
2018-11-27T02:20:43.533Z,1005.36
2018-11-27T02:21:43.952Z,1005.38
2018-11-27T02:22:44.517Z,1005.35
2018-11-27T02:23:44.351Z,1005.35
2018-11-27T02:24:44.779Z,1005.36
2018-11-27T02:25:45.100Z,1005.40
2018-11-27T02:26:45.517Z,1005.34
2018-11-27T02:27:46.174Z,1005.43
2018-11-27T02:28:46.048Z,1005.40
2018-11-27T02:29:46.450Z,1005.33
2018-11-27T02:30:46.609Z,1005.43
2018-11-27T02:31:46.434Z,1005.33
2018-11-27T02:32:46.776Z,1005.37
2018-11-27T02:33:47.205Z,1005.39
2018-11-27T02:35:47.617Z,1005.38
2018-11-27T02:36:48.134Z,1005.41
2018-11-27T02:37:48.164Z,1005.37
2018-11-27T02:38:48.314Z,1005.38
2018-11-27T02:39:48.428Z,1005.40
2018-11-27T02:40:49.156Z,1005.34
2018-11-27T02:41:49.163Z,1005.33
2018-11-27T02:42:49.690Z,1005.39
2018-11-27T02:43:50.013Z,1005.39
2018-11-27T02:44:50.309Z,1005.41
2018-11-27T02:45:50.822Z,1005.39
2018-11-27T02:46:50.833Z,1005.35
2018-11-27T02:47:51.019Z,1005.34
2018-11-27T02:48:51.350Z,1005.36
2018-11-27T02:49:51.414Z,1005.31
2018-11-27T02:50:51.670Z,1005.40
2018-11-27T02:51:51.783Z,1005.35
2018-11-27T02:53:51.904Z,1005.36
2018-11-27T02:54:51.907Z,1005.38
2018-11-27T02:55:52.017Z,1005.41
2018-11-27T02:56:51.924Z,1005.41
2018-11-27T02:57:52.334Z,1005.36
2018-11-27T02:58:52.508Z,1005.32
2018-11-27T02:59:52.628Z,1005.40
2018-11-27T03:00:52.765Z,1005.38
2018-11-27T03:01:52.930Z,1005.41
2018-11-27T03:02:53.305Z,1005.41
2018-11-27T03:03:53.197Z,1005.39
2018-11-27T03:04:53.605Z,1005.46
2018-11-27T03:05:53.506Z,1005.30
2018-11-27T03:06:54.059Z,1005.42
2018-11-27T03:07:54.098Z,1005.38
2018-11-27T03:08:54.095Z,1005.34
2018-11-27T03:09:54.713Z,1005.39
2018-11-27T03:10:54.598Z,1005.41
2018-11-27T03:11:55.023Z,1005.44
2018-11-27T03:12:55.513Z,1005.47
2018-11-27T03:13:55.956Z,1005.35
2018-11-27T03:14:56.363Z,1005.43
2018-11-27T03:15:56.783Z,1005.41
2018-11-27T03:16:57.128Z,1005.45
2018-11-27T03:17:57.522Z,1005.42
2018-11-27T03:18:57.931Z,1005.37
2018-11-27T03:19:58.342Z,1005.37
2018-11-27T03:20:58.760Z,1005.53
2018-11-27T03:21:59.209Z,1005.44
2018-11-27T03:22:59.597Z,1005.46
2018-11-27T03:24:00.007Z,1005.45
2018-11-27T03:25:00.426Z,1005.36
2018-11-27T03:26:00.511Z,1005.52
2018-11-27T03:27:00.827Z,1005.52
2018-11-27T03:28:01.354Z,1005.48
2018-11-27T03:29:01.375Z,1005.49
2018-11-27T03:30:02.382Z,1005.48
2018-11-27T03:31:02.178Z,1005.48
2018-11-27T03:32:02.680Z,1005.52
2018-11-27T03:33:02.163Z,1005.41
2018-11-27T03:34:02.595Z,1005.47
2018-11-27T03:35:02.369Z,1005.45
2018-11-27T03:36:03.132Z,1005.52
2018-11-27T03:37:03.650Z,1005.56
2018-11-27T03:38:04.189Z,1005.49
2018-11-27T03:39:04.491Z,1005.53
2018-11-27T03:40:05.007Z,1005.58
2018-11-27T03:41:05.015Z,1005.56
2018-11-27T03:42:05.330Z,1005.55
2018-11-27T03:43:05.641Z,1005.56
2018-11-27T03:44:06.068Z,1005.58
2018-11-27T03:45:06.470Z,1005.61
2018-11-27T03:46:06.508Z,1005.61
2018-11-27T03:47:06.788Z,1005.69
2018-11-27T03:48:06.886Z,1005.67
2018-11-27T03:49:06.913Z,1005.66
2018-11-27T03:50:06.885Z,1005.55
2018-11-27T03:51:07.465Z,1005.59
2018-11-27T03:52:07.322Z,1005.63
2018-11-27T03:53:07.646Z,1005.61
2018-11-27T03:54:07.793Z,1005.60
2018-11-27T03:55:08.157Z,1005.55
2018-11-27T03:56:08.096Z,1005.59
2018-11-27T03:57:07.966Z,1005.59
2018-11-27T03:58:08.913Z,1005.59
2018-11-27T03:59:08.711Z,1005.59
2018-11-27T04:00:09.212Z,1005.62
2018-11-27T04:01:09.323Z,1005.62
2018-11-27T04:02:09.676Z,1005.64
2018-11-27T04:03:10.094Z,1005.66
2018-11-27T04:04:10.421Z,1005.65
2018-11-27T04:05:10.829Z,1005.67
2018-11-27T04:06:11.241Z,1005.70
2018-11-27T04:07:11.717Z,1005.70
2018-11-27T04:08:12.122Z,1005.69
2018-11-27T04:09:12.516Z,1005.65
2018-11-27T04:10:12.913Z,1005.65
2018-11-27T04:11:13.338Z,1005.76
2018-11-27T04:12:13.738Z,1005.74
2018-11-27T04:13:14.048Z,1005.69
2018-11-27T04:14:14.370Z,1005.76
2018-11-27T04:15:14.661Z,1005.78
2018-11-27T04:16:15.023Z,1005.76
2018-11-27T04:17:15.690Z,1005.80
2018-11-27T04:18:15.728Z,1005.79
2018-11-27T04:19:16.142Z,1005.85
2018-11-27T04:20:17.025Z,1005.85
2018-11-27T04:21:16.880Z,1005.84
2018-11-27T04:22:17.180Z,1005.88
2018-11-27T04:23:17.511Z,1005.79
2018-11-27T04:24:18.202Z,1005.88
2018-11-27T04:25:18.311Z,1005.88
2018-11-27T04:26:19.025Z,1005.89
2018-11-27T04:27:19.238Z,1005.89
2018-11-27T04:28:19.254Z,1005.84
2018-11-27T04:29:19.249Z,1005.84
2018-11-27T04:30:19.370Z,1005.84
2018-11-27T04:31:19.786Z,1005.93
2018-11-27T04:32:20.090Z,1005.94
2018-11-27T04:33:20.307Z,1005.98
2018-11-27T04:34:20.719Z,1005.92
2018-11-27T04:35:20.929Z,1005.92
2018-11-27T04:36:20.978Z,1005.90
2018-11-27T04:37:21.254Z,1005.91
2018-11-27T04:38:21.306Z,1005.95
2018-11-27T04:39:21.364Z,1005.94
2018-11-27T04:40:21.591Z,1005.92
2018-11-27T04:41:21.484Z,1005.94
2018-11-27T04:42:22.289Z,1005.96
2018-11-27T04:43:22.165Z,1005.95
2018-11-27T04:44:22.467Z,1005.95
2018-11-27T04:45:22.630Z,1005.95
2018-11-27T04:46:22.827Z,1005.89
2018-11-27T04:47:23.014Z,1005.91
2018-11-27T04:48:23.124Z,1005.88
2018-11-27T04:49:23.269Z,1005.96
2018-11-27T04:50:23.482Z,1005.97
2018-11-27T04:51:24.029Z,1005.92
2018-11-27T04:52:23.936Z,1005.92
2018-11-27T04:53:24.071Z,1005.95
2018-11-27T04:54:24.100Z,1006.02
2018-11-27T04:55:24.127Z,1006.03
2018-11-27T04:56:24.157Z,1005.90
2018-11-27T04:57:24.233Z,1006.00
2018-11-27T04:58:24.309Z,1005.92
2018-11-27T05:00:24.447Z,1005.94
2018-11-27T05:01:24.599Z,1006.09
2018-11-27T05:02:24.917Z,1006.13
2018-11-27T05:03:25.261Z,1006.14
2018-11-27T05:04:26.778Z,1006.14
2018-11-27T05:05:26.169Z,1006.15
2018-11-27T05:06:26.753Z,1006.15
2018-11-27T05:07:26.533Z,1006.18
2018-11-27T05:08:26.932Z,1006.21
2018-11-27T05:09:27.335Z,1006.20
2018-11-27T05:10:27.742Z,1006.23
2018-11-27T05:11:28.166Z,1006.15
2018-11-27T05:12:28.574Z,1006.25
2018-11-27T05:13:29.024Z,1006.27
2018-11-27T05:14:29.416Z,1006.22
2018-11-27T05:15:29.900Z,1006.31
2018-11-27T05:16:30.235Z,1006.30
2018-11-27T05:17:30.653Z,1006.22
2018-11-27T05:18:31.065Z,1006.26
2018-11-27T05:19:31.393Z,1006.29
2018-11-27T05:20:31.995Z,1006.29
2018-11-27T05:21:32.080Z,1006.33
2018-11-27T05:22:31.939Z,1006.40
2018-11-27T05:23:32.338Z,1006.33
2018-11-27T05:24:32.622Z,1006.37
2018-11-27T05:25:33.949Z,1006.33
2018-11-27T05:26:34.173Z,1006.33
2018-11-27T05:27:34.375Z,1006.37
2018-11-27T05:28:34.891Z,1006.33
2018-11-27T05:29:35.102Z,1006.34
2018-11-27T05:30:35.420Z,1006.33
2018-11-27T05:31:35.738Z,1006.42
2018-11-27T05:32:36.055Z,1006.39
2018-11-27T05:33:36.111Z,1006.33
2018-11-27T05:34:36.773Z,1006.29
2018-11-27T05:35:36.575Z,1006.32
2018-11-27T05:36:36.896Z,1006.34
2018-11-27T05:37:36.989Z,1006.33
2018-11-27T05:38:37.102Z,1006.31
2018-11-27T05:39:37.473Z,1006.38
2018-11-27T05:40:37.570Z,1006.34
2018-11-27T05:41:37.682Z,1006.38
2018-11-27T05:42:37.874Z,1006.36
2018-11-27T05:43:38.066Z,1006.36
2018-11-27T05:44:38.457Z,1006.40
2018-11-27T05:45:38.740Z,1006.37
2018-11-27T05:46:39.112Z,1006.39
2018-11-27T05:47:39.186Z,1006.41
2018-11-27T05:48:39.371Z,1006.42
2018-11-27T05:49:39.898Z,1006.50
2018-11-27T05:50:39.311Z,1006.49
2018-11-27T05:51:39.615Z,1006.50
2018-11-27T05:52:39.930Z,1006.49
2018-11-27T05:53:40.412Z,1006.47
2018-11-27T05:54:40.931Z,1006.54
2018-11-27T05:55:40.836Z,1006.53
2018-11-27T05:56:41.220Z,1006.52
2018-11-27T05:57:41.595Z,1006.48
2018-11-27T05:58:41.775Z,1006.56
2018-11-27T05:59:42.302Z,1006.61
2018-11-27T06:00:42.188Z,1006.57
2018-11-27T06:01:43.025Z,1006.52
2018-11-27T06:02:43.058Z,1006.53
2018-11-27T06:03:43.286Z,1006.63
2018-11-27T06:04:43.662Z,1006.55
2018-11-27T06:05:44.124Z,1006.60
2018-11-27T06:06:44.533Z,1006.61
2018-11-27T06:07:45.014Z,1006.65
2018-11-27T06:08:45.445Z,1006.66
2018-11-27T06:09:45.769Z,1006.67
2018-11-27T06:10:46.239Z,1006.63
2018-11-27T06:11:46.567Z,1006.68
2018-11-27T06:12:46.993Z,1006.64
2018-11-27T06:14:47.424Z,1006.70
2018-11-27T06:15:47.754Z,1006.66
2018-11-27T06:16:48.624Z,1006.63
2018-11-27T06:17:49.254Z,1006.74
2018-11-27T06:18:49.354Z,1006.65
2018-11-27T06:19:49.873Z,1006.81
2018-11-27T06:20:50.289Z,1006.77
2018-11-27T06:21:50.604Z,1006.80
2018-11-27T06:22:50.984Z,1006.84
2018-11-27T06:23:51.230Z,1006.76
2018-11-27T06:24:51.647Z,1006.75
2018-11-27T06:25:51.758Z,1006.84
2018-11-27T06:26:51.859Z,1006.88
2018-11-27T06:27:51.934Z,1006.88
2018-11-27T06:28:52.208Z,1006.89
2018-11-27T06:29:52.275Z,1006.85
2018-11-27T06:30:52.602Z,1006.89
2018-11-27T06:31:52.767Z,1006.88
2018-11-27T06:32:52.937Z,1006.88
2018-11-27T06:33:53.138Z,1006.87
2018-11-27T06:34:53.337Z,1006.90
2018-11-27T06:36:53.646Z,1006.94
2018-11-27T06:37:53.811Z,1006.95
2018-11-27T06:38:54.099Z,1006.97
2018-11-27T06:39:54.209Z,1006.99
2018-11-27T06:40:54.305Z,1006.99
2018-11-27T06:41:54.719Z,1007.08
2018-11-27T06:42:54.538Z,1007.03
2018-11-27T06:43:54.875Z,1007.04
2018-11-27T06:44:55.286Z,1007.04
2018-11-27T06:45:55.705Z,1007.07
2018-11-27T06:46:56.379Z,1007.15
2018-11-27T06:47:56.344Z,1007.18
2018-11-27T06:48:56.743Z,1007.11
2018-11-27T06:49:57.217Z,1007.16
2018-11-27T06:50:57.624Z,1007.24
2018-11-27T06:51:57.992Z,1007.24
2018-11-27T06:52:58.719Z,1007.20
2018-11-27T06:53:58.618Z,1007.25
2018-11-27T06:54:58.962Z,1007.30
2018-11-27T06:55:59.542Z,1007.28
2018-11-27T06:56:59.460Z,1007.27
2018-11-27T06:57:59.777Z,1007.26
2018-11-27T06:59:00.097Z,1007.28
2018-11-27T07:00:00.501Z,1007.22
2018-11-27T07:01:00.512Z,1007.22
2018-11-27T07:02:01.029Z,1007.25
2018-11-27T07:03:00.943Z,1007.24
2018-11-27T07:04:01.211Z,1007.25
2018-11-27T07:05:01.731Z,1007.34
2018-11-27T07:06:01.874Z,1007.30
2018-11-27T07:07:02.252Z,1007.34
2018-11-27T07:08:02.605Z,1007.36
2018-11-27T07:09:02.995Z,1007.37
2018-11-27T07:10:02.890Z,1007.43
2018-11-27T07:12:03.414Z,1007.51
2018-11-27T07:13:04.242Z,1007.37
2018-11-27T07:14:04.872Z,1007.53
2018-11-27T07:15:04.663Z,1007.52
2018-11-27T07:16:04.861Z,1007.51
2018-11-27T07:17:04.883Z,1007.50
2018-11-27T07:18:05.315Z,1007.59
2018-11-27T07:19:05.013Z,1007.57
2018-11-27T07:20:05.612Z,1007.64
2018-11-27T07:21:05.726Z,1007.68
2018-11-27T07:22:05.926Z,1007.68
2018-11-27T07:23:06.045Z,1007.67
2018-11-27T07:24:06.171Z,1007.75
2018-11-27T07:25:06.064Z,1007.74
2018-11-27T07:26:06.778Z,1007.72
2018-11-27T07:27:06.689Z,1007.78
2018-11-27T07:28:07.172Z,1007.63
2018-11-27T07:29:07.224Z,1007.63
2018-11-27T07:30:07.456Z,1007.68
2018-11-27T07:31:07.667Z,1007.68
2018-11-27T07:32:09.601Z,1007.74
2018-11-27T07:33:07.735Z,1007.75
2018-11-27T07:34:08.393Z,1007.79
2018-11-27T07:35:08.905Z,1007.75
2018-11-27T07:36:08.645Z,1007.79
2018-11-27T07:37:09.028Z,1007.77
2018-11-27T07:38:09.176Z,1007.78
2018-11-27T07:39:09.463Z,1007.82
2018-11-27T07:40:09.775Z,1007.81
2018-11-27T07:41:09.916Z,1007.84
2018-11-27T07:42:10.273Z,1007.85
2018-11-27T07:43:10.688Z,1007.83
2018-11-27T07:44:10.734Z,1007.88
2018-11-27T07:45:11.037Z,1007.91
2018-11-27T07:46:11.463Z,1007.90
2018-11-27T07:47:11.735Z,1007.87
2018-11-27T07:48:12.239Z,1007.87
2018-11-27T07:49:12.043Z,1007.89
2018-11-27T07:50:12.318Z,1007.86
2018-11-27T07:51:12.680Z,1007.93
2018-11-27T07:52:12.951Z,1007.93
2018-11-27T07:53:15.254Z,1008.01
2018-11-27T07:54:15.074Z,1007.94
2018-11-27T07:55:15.464Z,1007.94
2018-11-27T07:56:15.497Z,1007.99
2018-11-27T07:57:15.931Z,1007.97
2018-11-27T07:58:13.906Z,1007.94
2018-11-27T07:59:14.441Z,1007.94
2018-11-27T08:00:14.280Z,1007.99
2018-11-27T08:01:14.397Z,1008.02
2018-11-27T08:02:14.700Z,1008.04
2018-11-27T08:03:14.966Z,1008.08
2018-11-27T08:04:15.231Z,1008.15
2018-11-27T08:05:15.848Z,1008.15
2018-11-27T08:06:15.873Z,1008.09
2018-11-27T08:07:16.140Z,1008.10
2018-11-27T08:08:16.615Z,1008.13
2018-11-27T08:09:16.872Z,1008.20
2018-11-27T08:10:17.487Z,1008.14
2018-11-27T08:11:17.362Z,1008.14
2018-11-27T08:12:17.627Z,1008.21
2018-11-27T08:13:17.992Z,1008.24
2018-11-27T08:14:18.537Z,1008.19
2018-11-27T08:15:18.646Z,1008.27
2018-11-27T08:16:18.858Z,1008.29
2018-11-27T08:17:18.954Z,1008.32
2018-11-27T08:18:19.067Z,1008.33
2018-11-27T08:19:19.198Z,1008.28
2018-11-27T08:20:19.363Z,1008.30
2018-11-27T08:21:19.713Z,1008.35
2018-11-27T08:22:19.828Z,1008.30
2018-11-27T08:23:19.943Z,1008.35
2018-11-27T08:24:20.062Z,1008.29
2018-11-27T08:25:20.242Z,1008.36
2018-11-27T08:26:20.363Z,1008.39
2018-11-27T08:27:20.496Z,1008.31
2018-11-27T08:28:20.637Z,1008.41
2018-11-27T08:29:20.776Z,1008.35
2018-11-27T08:30:20.902Z,1008.38
2018-11-27T08:31:21.186Z,1008.41
2018-11-27T08:32:21.301Z,1008.37
2018-11-27T08:33:21.357Z,1008.44
2018-11-27T08:34:21.479Z,1008.34
2018-11-27T08:35:21.546Z,1008.37
2018-11-27T08:36:21.980Z,1008.38
2018-11-27T08:37:22.130Z,1008.37
2018-11-27T08:38:22.244Z,1008.38
2018-11-27T08:39:22.325Z,1008.30
2018-11-27T08:40:22.402Z,1008.44
2018-11-27T08:41:23.973Z,1008.41
2018-11-27T08:42:22.925Z,1008.46
2018-11-27T08:43:22.997Z,1008.47
2018-11-27T08:44:23.078Z,1008.48
2018-11-27T08:45:23.158Z,1008.52
2018-11-27T08:46:23.272Z,1008.59
2018-11-27T08:47:23.339Z,1008.63
2018-11-27T08:48:23.420Z,1008.60
2018-11-27T08:49:23.483Z,1008.64
2018-11-27T08:50:23.615Z,1008.63
2018-11-27T08:51:23.989Z,1008.62
2018-11-27T08:52:23.946Z,1008.65
2018-11-27T08:53:24.318Z,1008.61
2018-11-27T08:54:24.595Z,1008.63
2018-11-27T08:56:25.151Z,1008.71
2018-11-27T08:57:25.080Z,1008.63
2018-11-27T08:58:25.355Z,1008.71
2018-11-27T08:59:25.636Z,1008.69
2018-11-27T09:00:25.981Z,1008.73
2018-11-27T09:01:26.266Z,1008.69
2018-11-27T09:02:26.541Z,1008.70
2018-11-27T09:03:26.909Z,1008.68
2018-11-27T09:04:27.377Z,1008.68
2018-11-27T09:05:27.657Z,1008.69
2018-11-27T09:06:27.905Z,1008.69
2018-11-27T09:07:28.173Z,1008.69
2018-11-27T09:08:28.536Z,1008.71
2018-11-27T09:09:28.835Z,1008.73
2018-11-27T09:10:29.129Z,1008.75
2018-11-27T09:11:29.451Z,1008.75
2018-11-27T09:12:29.883Z,1008.75
2018-11-27T09:13:30.005Z,1008.76
2018-11-27T09:14:30.599Z,1008.76
2018-11-27T09:15:30.645Z,1008.78
2018-11-27T09:16:30.426Z,1008.78
2018-11-27T09:17:30.721Z,1008.78
2018-11-27T09:18:31.477Z,1008.79
2018-11-27T09:19:31.251Z,1008.81
2018-11-27T09:20:31.526Z,1008.82
2018-11-27T09:21:31.794Z,1008.81
2018-11-27T09:22:32.139Z,1008.81
2018-11-27T09:23:32.432Z,1008.84
2018-11-27T09:24:32.929Z,1008.82
2018-11-27T09:25:33.472Z,1008.81
2018-11-27T09:26:33.630Z,1008.82
2018-11-27T09:27:33.727Z,1008.82
2018-11-27T09:28:33.863Z,1008.83
2018-11-27T09:29:33.987Z,1008.85
2018-11-27T09:30:34.078Z,1008.86
2018-11-27T09:31:34.222Z,1008.85
2018-11-27T09:32:34.405Z,1008.86
2018-11-27T09:33:34.535Z,1008.86
2018-11-27T09:34:34.635Z,1008.87
2018-11-27T09:35:35.283Z,1008.90
2018-11-27T09:36:34.947Z,1008.90
2018-11-27T09:37:35.071Z,1008.92
2018-11-27T09:38:35.262Z,1008.92
2018-11-27T09:39:35.400Z,1008.94
2018-11-27T09:40:35.550Z,1008.94
2018-11-27T09:41:35.655Z,1008.95
2018-11-27T09:42:35.812Z,1008.96
2018-11-27T09:43:35.980Z,1008.98
2018-11-27T09:44:36.028Z,1008.98
2018-11-27T09:45:36.107Z,1009.00
2018-11-27T09:46:36.443Z,1009.00
2018-11-27T09:47:36.540Z,1009.02
2018-11-27T09:48:36.812Z,1009.05
2018-11-27T09:49:37.207Z,1009.07
2018-11-27T09:51:37.086Z,1009.07
2018-11-27T09:52:37.222Z,1009.05
2018-11-27T09:53:37.366Z,1009.06
2018-11-27T09:54:37.450Z,1009.08
2018-11-27T09:55:37.517Z,1009.10
2018-11-27T09:57:37.614Z,1009.10
2018-11-27T09:58:37.684Z,1009.10
2018-11-27T09:59:37.761Z,1009.12
2018-11-27T10:00:37.835Z,1009.14
2018-11-27T10:01:37.919Z,1009.13
2018-11-27T10:02:38.005Z,1009.12
2018-11-27T10:03:38.075Z,1009.11
2018-11-27T10:04:38.171Z,1009.10
2018-11-27T10:05:38.258Z,1009.10
2018-11-27T10:06:38.354Z,1009.09
2018-11-27T10:07:38.427Z,1009.09
2018-11-27T10:08:38.504Z,1009.11
2018-11-27T10:09:39.953Z,1009.14
2018-11-27T10:10:38.704Z,1009.15
2018-11-27T10:11:38.703Z,1009.16
2018-11-27T10:12:38.816Z,1009.17
2018-11-27T10:13:38.819Z,1009.18
2018-11-27T10:14:39.337Z,1009.20
2018-11-27T10:15:39.308Z,1009.20
2018-11-27T10:16:39.579Z,1009.20
2018-11-27T10:17:40.062Z,1009.21
2018-11-27T10:18:40.107Z,1009.22
2018-11-27T10:19:40.371Z,1009.22
2018-11-27T10:20:40.639Z,1009.22
2018-11-27T10:21:40.902Z,1009.20
2018-11-27T10:22:41.216Z,1009.19
2018-11-27T10:23:41.506Z,1009.20
2018-11-27T10:24:41.797Z,1009.21
2018-11-27T10:25:42.286Z,1009.22
2018-11-27T10:26:42.798Z,1009.24
2018-11-27T10:27:42.791Z,1009.25
2018-11-27T10:28:42.720Z,1009.26
2018-11-27T10:29:43.018Z,1009.27
2018-11-27T10:31:43.380Z,1009.25
2018-11-27T10:32:43.653Z,1009.25
2018-11-27T10:33:44.212Z,1009.25
2018-11-27T10:34:44.687Z,1009.25
2018-11-27T10:35:44.954Z,1009.26
2018-11-27T10:36:45.306Z,1009.27
2018-11-27T10:37:45.607Z,1009.27
2018-11-27T10:38:45.884Z,1009.28
2018-11-27T10:39:46.162Z,1009.28
2018-11-27T10:40:46.546Z,1009.29
2018-11-27T10:41:46.802Z,1009.29
2018-11-27T10:42:47.378Z,1009.28
2018-11-27T10:43:47.713Z,1009.28
2018-11-27T10:44:47.853Z,1009.27
2018-11-27T10:45:48.316Z,1009.27
2018-11-27T10:46:48.949Z,1009.26
2018-11-27T10:47:49.090Z,1009.26
2018-11-27T10:48:49.365Z,1009.26
2018-11-27T10:49:49.523Z,1009.25
2018-11-27T10:50:49.656Z,1009.25
2018-11-27T10:51:49.799Z,1009.26
2018-11-27T10:52:49.916Z,1009.28
2018-11-27T10:53:50.142Z,1009.27
2018-11-27T10:54:50.831Z,1009.28
2018-11-27T10:55:50.472Z,1009.29
2018-11-27T10:56:50.621Z,1009.29
2018-11-27T10:57:50.775Z,1009.31
2018-11-27T10:58:50.862Z,1009.33
2018-11-27T10:59:51.007Z,1009.33
2018-11-27T11:00:51.087Z,1009.35
2018-11-27T11:01:51.311Z,1009.37
2018-11-27T11:02:51.794Z,1009.38
2018-11-27T11:03:52.086Z,1009.39
2018-11-27T11:04:52.189Z,1009.41
2018-11-27T11:05:51.970Z,1009.42
2018-11-27T11:06:52.763Z,1009.42
2018-11-27T11:07:52.844Z,1009.42
2018-11-27T11:08:52.958Z,1009.42
2018-11-27T11:09:53.041Z,1009.43
2018-11-27T11:10:53.128Z,1009.44
2018-11-27T11:11:53.245Z,1009.45
2018-11-27T11:12:53.378Z,1009.45
2018-11-27T11:13:53.491Z,1009.44
2018-11-27T11:14:53.584Z,1009.44
2018-11-27T11:15:53.654Z,1009.45
2018-11-27T11:16:53.756Z,1009.44
2018-11-27T11:17:53.834Z,1009.46
2018-11-27T11:18:53.866Z,1009.47
2018-11-27T11:19:53.906Z,1009.48
2018-11-27T11:20:53.970Z,1009.49
2018-11-27T11:21:54.026Z,1009.48
2018-11-27T11:22:53.977Z,1009.46
2018-11-27T11:23:54.644Z,1009.47
2018-11-27T11:24:54.428Z,1009.45
2018-11-27T11:25:54.705Z,1009.44
2018-11-27T11:26:54.968Z,1009.43
2018-11-27T11:27:55.236Z,1009.45
2018-11-27T11:28:55.494Z,1009.45
2018-11-27T11:29:55.773Z,1009.44
2018-11-27T11:30:56.135Z,1009.44
2018-11-27T11:31:56.432Z,1009.45
2018-11-27T11:32:56.706Z,1009.45
2018-11-27T11:33:57.010Z,1009.45
2018-11-27T11:34:57.275Z,1009.46
2018-11-27T11:35:57.544Z,1009.47
2018-11-27T11:36:57.813Z,1009.48
2018-11-27T11:37:58.088Z,1009.46
2018-11-27T11:38:58.441Z,1009.47
2018-11-27T11:39:58.724Z,1009.48
2018-11-27T11:40:59.026Z,1009.47
2018-11-27T11:41:59.329Z,1009.48
2018-11-27T11:42:59.605Z,1009.48
2018-11-27T11:43:59.971Z,1009.49
2018-11-27T11:45:00.222Z,1009.48
2018-11-27T11:46:00.492Z,1009.51
2018-11-27T11:47:00.784Z,1009.51
2018-11-27T11:48:01.099Z,1009.49
2018-11-27T11:49:02.001Z,1009.49
2018-11-27T11:50:02.055Z,1009.50
2018-11-27T11:51:02.168Z,1009.51
2018-11-27T11:52:02.354Z,1009.51
2018-11-27T11:53:02.435Z,1009.52
2018-11-27T11:54:02.958Z,1009.52
2018-11-27T11:55:02.696Z,1009.52
2018-11-27T11:56:03.472Z,1009.53
2018-11-27T11:57:03.965Z,1009.54
2018-11-27T11:58:04.074Z,1009.55
2018-11-27T11:59:04.191Z,1009.55
2018-11-27T12:00:04.338Z,1009.56
2018-11-27T12:01:04.656Z,1009.57
2018-11-27T12:02:04.804Z,1009.62
2018-11-27T12:03:04.958Z,1009.61
2018-11-27T12:04:05.114Z,1009.63
2018-11-27T12:05:05.249Z,1009.55
2018-11-27T12:06:05.569Z,1009.59
2018-11-27T12:07:05.323Z,1009.59
2018-11-27T12:08:05.981Z,1009.55
2018-11-27T12:09:06.324Z,1009.54
2018-11-27T12:10:06.542Z,1009.53
2018-11-27T12:11:06.866Z,1009.55
2018-11-27T12:12:06.994Z,1009.55
2018-11-27T12:13:07.042Z,1009.65
2018-11-27T12:14:07.360Z,1009.56
2018-11-27T12:15:07.470Z,1009.66
2018-11-27T12:16:07.881Z,1009.56
2018-11-27T12:17:10.466Z,1009.65
2018-11-27T12:18:08.074Z,1009.70
2018-11-27T12:19:07.832Z,1009.65
2018-11-27T12:20:08.107Z,1009.76